sensor_id;sensor_type;location;lat;lon;timestamp;P1;durP1;ratioP1;P2;durP2;ratioP2
43670;SDS011;29267;50.906;7.248;2022-08-24T00:01:08;4.93;;;2.42;;
43670;SDS011;29267;50.906;7.248;2022-08-24T00:03:36;5.80;;;2.22;;
43670;SDS011;29267;50.906;7.248;2022-08-24T00:06:05;10.88;;;2.47;;
43670;SDS011;29267;50.906;7.248;2022-08-24T00:08:33;6.63;;;2.40;;
43670;SDS011;29267;50.906;7.248;2022-08-24T00:10:59;5.93;;;2.80;;
43670;SDS011;29267;50.906;7.248;2022-08-24T00:13:26;8.98;;;2.63;;
43670;SDS011;29267;50.906;7.248;2022-08-24T00:15:52;5.90;;;2.63;;
43670;SDS011;29267;50.906;7.248;2022-08-24T00:18:18;6.57;;;2.72;;
43670;SDS011;29267;50.906;7.248;2022-08-24T00:20:44;8.60;;;2.80;;
43670;SDS011;29267;50.906;7.248;2022-08-24T00:23:10;6.97;;;2.72;;
43670;SDS011;29267;50.906;7.248;2022-08-24T00:25:36;5.32;;;2.78;;
43670;SDS011;29267;50.906;7.248;2022-08-24T00:28:03;6.35;;;2.50;;
43670;SDS011;29267;50.906;7.248;2022-08-24T00:30:29;5.35;;;2.70;;
43670;SDS011;29267;50.906;7.248;2022-08-24T00:32:55;5.47;;;2.75;;
43670;SDS011;29267;50.906;7.248;2022-08-24T00:35:21;6.50;;;2.70;;
43670;SDS011;29267;50.906;7.248;2022-08-24T00:37:48;10.10;;;2.80;;
43670;SDS011;29267;50.906;7.248;2022-08-24T00:40:24;4.53;;;2.55;;
43670;SDS011;29267;50.906;7.248;2022-08-24T00:42:50;6.93;;;2.53;;
43670;SDS011;29267;50.906;7.248;2022-08-24T00:45:18;8.07;;;3.03;;
43670;SDS011;29267;50.906;7.248;2022-08-24T00:47:52;5.22;;;3.00;;
43670;SDS011;29267;50.906;7.248;2022-08-24T00:50:28;3.83;;;2.85;;
43670;SDS011;29267;50.906;7.248;2022-08-24T00:53:05;5.70;;;2.70;;
43670;SDS011;29267;50.906;7.248;2022-08-24T00:55:46;3.53;;;2.17;;
43670;SDS011;29267;50.906;7.248;2022-08-24T00:58:17;5.85;;;2.65;;
43670;SDS011;29267;50.906;7.248;2022-08-24T01:00:57;6.05;;;2.60;;
43670;SDS011;29267;50.906;7.248;2022-08-24T01:03:26;6.10;;;2.50;;
43670;SDS011;29267;50.906;7.248;2022-08-24T01:05:54;6.03;;;2.92;;
43670;SDS011;29267;50.906;7.248;2022-08-24T01:08:20;7.20;;;2.85;;
43670;SDS011;29267;50.906;7.248;2022-08-24T01:11:09;6.57;;;3.08;;
43670;SDS011;29267;50.906;7.248;2022-08-24T01:13:38;11.95;;;3.00;;
43670;SDS011;29267;50.906;7.248;2022-08-24T01:16:07;8.45;;;3.17;;
43670;SDS011;29267;50.906;7.248;2022-08-24T01:18:35;6.40;;;3.15;;
43670;SDS011;29267;50.906;7.248;2022-08-24T01:23:47;7.40;;;3.03;;
43670;SDS011;29267;50.906;7.248;2022-08-24T01:26:16;6.93;;;3.25;;
43670;SDS011;29267;50.906;7.248;2022-08-24T01:28:58;5.55;;;2.67;;
43670;SDS011;29267;50.906;7.248;2022-08-24T01:31:28;7.28;;;3.40;;
43670;SDS011;29267;50.906;7.248;2022-08-24T01:33:54;8.52;;;3.55;;
43670;SDS011;29267;50.906;7.248;2022-08-24T01:36:31;6.55;;;3.22;;
43670;SDS011;29267;50.906;7.248;2022-08-24T01:39:24;9.00;;;3.58;;
43670;SDS011;29267;50.906;7.248;2022-08-24T01:41:54;8.55;;;4.00;;
43670;SDS011;29267;50.906;7.248;2022-08-24T01:44:21;12.73;;;3.78;;
43670;SDS011;29267;50.906;7.248;2022-08-24T01:46:49;8.52;;;3.50;;
43670;SDS011;29267;50.906;7.248;2022-08-24T01:49:24;7.85;;;3.30;;
43670;SDS011;29267;50.906;7.248;2022-08-24T01:51:52;7.60;;;3.20;;
43670;SDS011;29267;50.906;7.248;2022-08-24T01:54:18;6.82;;;3.78;;
43670;SDS011;29267;50.906;7.248;2022-08-24T01:56:44;5.50;;;3.08;;
43670;SDS011;29267;50.906;7.248;2022-08-24T01:59:10;8.50;;;3.25;;
43670;SDS011;29267;50.906;7.248;2022-08-24T02:01:37;6.03;;;3.10;;
43670;SDS011;29267;50.906;7.248;2022-08-24T02:04:06;5.80;;;3.00;;
43670;SDS011;29267;50.906;7.248;2022-08-24T02:06:33;6.72;;;2.70;;
43670;SDS011;29267;50.906;7.248;2022-08-24T02:08:59;5.95;;;3.08;;
43670;SDS011;29267;50.906;7.248;2022-08-24T02:11:25;6.20;;;3.17;;
43670;SDS011;29267;50.906;7.248;2022-08-24T02:13:52;5.50;;;3.45;;
43670;SDS011;29267;50.906;7.248;2022-08-24T02:16:18;6.25;;;3.42;;
43670;SDS011;29267;50.906;7.248;2022-08-24T02:18:44;5.05;;;3.10;;
43670;SDS011;29267;50.906;7.248;2022-08-24T02:21:11;3.83;;;2.78;;
43670;SDS011;29267;50.906;7.248;2022-08-24T02:23:38;9.15;;;3.55;;
43670;SDS011;29267;50.906;7.248;2022-08-24T02:26:06;8.05;;;3.85;;
43670;SDS011;29267;50.906;7.248;2022-08-24T02:28:33;7.00;;;3.58;;
43670;SDS011;29267;50.906;7.248;2022-08-24T02:30:59;8.45;;;3.67;;
43670;SDS011;29267;50.906;7.248;2022-08-24T02:33:26;9.55;;;3.38;;
43670;SDS011;29267;50.906;7.248;2022-08-24T02:35:52;10.65;;;3.10;;
43670;SDS011;29267;50.906;7.248;2022-08-24T02:38:19;11.32;;;3.95;;
43670;SDS011;29267;50.906;7.248;2022-08-24T02:40:45;6.80;;;3.47;;
43670;SDS011;29267;50.906;7.248;2022-08-24T02:43:11;6.10;;;2.90;;
43670;SDS011;29267;50.906;7.248;2022-08-24T02:45:38;7.22;;;3.22;;
43670;SDS011;29267;50.906;7.248;2022-08-24T02:48:06;5.95;;;2.95;;
43670;SDS011;29267;50.906;7.248;2022-08-24T02:50:32;6.95;;;3.45;;
43670;SDS011;29267;50.906;7.248;2022-08-24T02:53:06;5.53;;;3.53;;
43670;SDS011;29267;50.906;7.248;2022-08-24T02:55:32;5.50;;;3.30;;
43670;SDS011;29267;50.906;7.248;2022-08-24T02:57:59;9.95;;;3.45;;
43670;SDS011;29267;50.906;7.248;2022-08-24T03:00:25;5.40;;;3.22;;
43670;SDS011;29267;50.906;7.248;2022-08-24T03:02:52;4.15;;;3.28;;
43670;SDS011;29267;50.906;7.248;2022-08-24T03:05:19;6.20;;;3.15;;
43670;SDS011;29267;50.906;7.248;2022-08-24T03:07:46;6.45;;;2.90;;
43670;SDS011;29267;50.906;7.248;2022-08-24T03:10:16;6.70;;;3.35;;
43670;SDS011;29267;50.906;7.248;2022-08-24T03:12:42;8.07;;;3.67;;
43670;SDS011;29267;50.906;7.248;2022-08-24T03:15:09;6.82;;;3.30;;
43670;SDS011;29267;50.906;7.248;2022-08-24T03:17:37;6.55;;;3.67;;
43670;SDS011;29267;50.906;7.248;2022-08-24T03:20:05;8.23;;;3.45;;
43670;SDS011;29267;50.906;7.248;2022-08-24T03:22:34;8.63;;;3.55;;
43670;SDS011;29267;50.906;7.248;2022-08-24T03:25:00;6.32;;;3.75;;
43670;SDS011;29267;50.906;7.248;2022-08-24T03:27:26;5.78;;;3.13;;
43670;SDS011;29267;50.906;7.248;2022-08-24T03:29:51;10.43;;;3.78;;
43670;SDS011;29267;50.906;7.248;2022-08-24T03:32:17;8.88;;;4.57;;
43670;SDS011;29267;50.906;7.248;2022-08-24T03:34:43;13.82;;;3.72;;
43670;SDS011;29267;50.906;7.248;2022-08-24T03:37:10;7.85;;;4.05;;
43670;SDS011;29267;50.906;7.248;2022-08-24T03:39:37;7.90;;;3.85;;
43670;SDS011;29267;50.906;7.248;2022-08-24T03:42:03;5.55;;;3.47;;
43670;SDS011;29267;50.906;7.248;2022-08-24T03:44:29;7.43;;;3.97;;
43670;SDS011;29267;50.906;7.248;2022-08-24T03:46:55;10.40;;;4.85;;
43670;SDS011;29267;50.906;7.248;2022-08-24T03:49:22;11.25;;;3.90;;
43670;SDS011;29267;50.906;7.248;2022-08-24T03:51:48;12.73;;;4.63;;
43670;SDS011;29267;50.906;7.248;2022-08-24T03:54:14;6.25;;;3.40;;
43670;SDS011;29267;50.906;7.248;2022-08-24T03:56:40;7.45;;;3.60;;
43670;SDS011;29267;50.906;7.248;2022-08-24T03:59:06;5.65;;;3.38;;
43670;SDS011;29267;50.906;7.248;2022-08-24T04:01:35;4.78;;;3.33;;
43670;SDS011;29267;50.906;7.248;2022-08-24T04:04:02;6.22;;;3.70;;
43670;SDS011;29267;50.906;7.248;2022-08-24T04:06:28;7.90;;;3.65;;
43670;SDS011;29267;50.906;7.248;2022-08-24T04:08:54;7.45;;;3.78;;
43670;SDS011;29267;50.906;7.248;2022-08-24T04:11:21;4.43;;;3.65;;
43670;SDS011;29267;50.906;7.248;2022-08-24T04:13:50;8.80;;;3.75;;
43670;SDS011;29267;50.906;7.248;2022-08-24T04:16:18;11.27;;;4.22;;
43670;SDS011;29267;50.906;7.248;2022-08-24T04:18:45;7.85;;;3.83;;
43670;SDS011;29267;50.906;7.248;2022-08-24T04:21:18;6.95;;;3.63;;
43670;SDS011;29267;50.906;7.248;2022-08-24T04:23:47;10.25;;;4.15;;
43670;SDS011;29267;50.906;7.248;2022-08-24T04:26:14;7.40;;;3.97;;
43670;SDS011;29267;50.906;7.248;2022-08-24T04:28:41;7.97;;;3.45;;
43670;SDS011;29267;50.906;7.248;2022-08-24T04:31:07;9.32;;;4.47;;
43670;SDS011;29267;50.906;7.248;2022-08-24T04:33:33;6.28;;;3.92;;
43670;SDS011;29267;50.906;7.248;2022-08-24T04:35:59;4.30;;;3.45;;
43670;SDS011;29267;50.906;7.248;2022-08-24T04:38:24;11.85;;;3.80;;
43670;SDS011;29267;50.906;7.248;2022-08-24T04:40:51;6.45;;;3.70;;
43670;SDS011;29267;50.906;7.248;2022-08-24T04:43:17;11.23;;;3.95;;
43670;SDS011;29267;50.906;7.248;2022-08-24T04:45:44;6.93;;;3.55;;
43670;SDS011;29267;50.906;7.248;2022-08-24T04:48:12;4.68;;;2.85;;
43670;SDS011;29267;50.906;7.248;2022-08-24T04:50:40;7.03;;;3.25;;
43670;SDS011;29267;50.906;7.248;2022-08-24T04:53:08;6.70;;;3.60;;
43670;SDS011;29267;50.906;7.248;2022-08-24T04:55:40;12.30;;;3.35;;
43670;SDS011;29267;50.906;7.248;2022-08-24T04:58:11;6.32;;;3.30;;
43670;SDS011;29267;50.906;7.248;2022-08-24T05:00:38;4.93;;;3.17;;
43670;SDS011;29267;50.906;7.248;2022-08-24T05:03:05;6.57;;;3.05;;
43670;SDS011;29267;50.906;7.248;2022-08-24T05:05:31;5.60;;;3.03;;
43670;SDS011;29267;50.906;7.248;2022-08-24T05:07:57;5.63;;;3.30;;
43670;SDS011;29267;50.906;7.248;2022-08-24T05:10:23;8.07;;;3.40;;
43670;SDS011;29267;50.906;7.248;2022-08-24T05:12:49;4.90;;;3.35;;
43670;SDS011;29267;50.906;7.248;2022-08-24T05:15:15;4.90;;;2.70;;
43670;SDS011;29267;50.906;7.248;2022-08-24T05:17:41;4.53;;;2.85;;
43670;SDS011;29267;50.906;7.248;2022-08-24T05:20:11;7.40;;;3.00;;
43670;SDS011;29267;50.906;7.248;2022-08-24T05:22:37;8.85;;;3.17;;
43670;SDS011;29267;50.906;7.248;2022-08-24T05:25:03;7.80;;;3.22;;
43670;SDS011;29267;50.906;7.248;2022-08-24T05:27:29;5.25;;;3.05;;
43670;SDS011;29267;50.906;7.248;2022-08-24T05:29:57;5.15;;;2.90;;
43670;SDS011;29267;50.906;7.248;2022-08-24T05:32:23;5.80;;;2.90;;
43670;SDS011;29267;50.906;7.248;2022-08-24T05:34:49;8.27;;;2.78;;
43670;SDS011;29267;50.906;7.248;2022-08-24T05:37:15;5.38;;;2.67;;
43670;SDS011;29267;50.906;7.248;2022-08-24T05:39:41;4.85;;;2.72;;
43670;SDS011;29267;50.906;7.248;2022-08-24T05:42:07;4.00;;;2.38;;
43670;SDS011;29267;50.906;7.248;2022-08-24T05:44:33;4.80;;;3.08;;
43670;SDS011;29267;50.906;7.248;2022-08-24T05:46:59;6.50;;;3.00;;
43670;SDS011;29267;50.906;7.248;2022-08-24T05:49:26;4.18;;;2.80;;
43670;SDS011;29267;50.906;7.248;2022-08-24T05:51:53;5.18;;;2.60;;
43670;SDS011;29267;50.906;7.248;2022-08-24T05:54:19;3.65;;;2.45;;
43670;SDS011;29267;50.906;7.248;2022-08-24T05:56:46;5.88;;;2.50;;
43670;SDS011;29267;50.906;7.248;2022-08-24T05:59:13;3.55;;;2.53;;
43670;SDS011;29267;50.906;7.248;2022-08-24T06:01:40;6.45;;;3.13;;
43670;SDS011;29267;50.906;7.248;2022-08-24T06:04:06;5.85;;;2.90;;
43670;SDS011;29267;50.906;7.248;2022-08-24T06:06:32;5.70;;;2.88;;
43670;SDS011;29267;50.906;7.248;2022-08-24T06:08:58;4.95;;;3.00;;
43670;SDS011;29267;50.906;7.248;2022-08-24T06:11:35;4.20;;;2.95;;
43670;SDS011;29267;50.906;7.248;2022-08-24T06:14:08;4.85;;;3.05;;
43670;SDS011;29267;50.906;7.248;2022-08-24T06:16:36;8.25;;;3.38;;
43670;SDS011;29267;50.906;7.248;2022-08-24T06:19:05;7.10;;;3.58;;
43670;SDS011;29267;50.906;7.248;2022-08-24T06:21:32;4.90;;;3.15;;
43670;SDS011;29267;50.906;7.248;2022-08-24T06:23:58;5.93;;;3.13;;
43670;SDS011;29267;50.906;7.248;2022-08-24T06:26:25;7.68;;;3.10;;
43670;SDS011;29267;50.906;7.248;2022-08-24T06:29:10;8.02;;;3.53;;
43670;SDS011;29267;50.906;7.248;2022-08-24T06:31:37;9.32;;;3.50;;
43670;SDS011;29267;50.906;7.248;2022-08-24T06:34:05;4.47;;;2.90;;
43670;SDS011;29267;50.906;7.248;2022-08-24T06:36:31;7.97;;;3.28;;
43670;SDS011;29267;50.906;7.248;2022-08-24T06:38:57;9.75;;;2.83;;
43670;SDS011;29267;50.906;7.248;2022-08-24T06:41:23;5.25;;;2.70;;
43670;SDS011;29267;50.906;7.248;2022-08-24T06:43:50;5.35;;;3.05;;
43670;SDS011;29267;50.906;7.248;2022-08-24T06:46:16;7.80;;;2.50;;
43670;SDS011;29267;50.906;7.248;2022-08-24T06:48:42;7.97;;;2.58;;
43670;SDS011;29267;50.906;7.248;2022-08-24T06:51:13;6.90;;;2.50;;
43670;SDS011;29267;50.906;7.248;2022-08-24T06:53:40;3.72;;;2.42;;
43670;SDS011;29267;50.906;7.248;2022-08-24T06:56:07;4.00;;;2.60;;
43670;SDS011;29267;50.906;7.248;2022-08-24T06:58:34;6.78;;;2.53;;
43670;SDS011;29267;50.906;7.248;2022-08-24T07:01:33;6.55;;;3.45;;
43670;SDS011;29267;50.906;7.248;2022-08-24T07:03:52;5.50;;;2.65;;
43670;SDS011;29267;50.906;7.248;2022-08-24T07:06:21;5.35;;;2.58;;
43670;SDS011;29267;50.906;7.248;2022-08-24T07:08:48;8.10;;;2.60;;
43670;SDS011;29267;50.906;7.248;2022-08-24T07:11:15;7.45;;;2.38;;
43670;SDS011;29267;50.906;7.248;2022-08-24T07:13:46;4.13;;;2.60;;
43670;SDS011;29267;50.906;7.248;2022-08-24T07:16:13;7.15;;;2.60;;
43670;SDS011;29267;50.906;7.248;2022-08-24T07:18:40;10.45;;;2.60;;
43670;SDS011;29267;50.906;7.248;2022-08-24T07:21:06;5.10;;;2.47;;
43670;SDS011;29267;50.906;7.248;2022-08-24T07:23:32;3.05;;;2.33;;
43670;SDS011;29267;50.906;7.248;2022-08-24T07:26:05;11.02;;;5.18;;
43670;SDS011;29267;50.906;7.248;2022-08-24T07:28:37;6.63;;;3.00;;
43670;SDS011;29267;50.906;7.248;2022-08-24T07:31:04;5.90;;;2.20;;
43670;SDS011;29267;50.906;7.248;2022-08-24T07:33:31;13.05;;;2.47;;
43670;SDS011;29267;50.906;7.248;2022-08-24T07:35:57;6.75;;;2.22;;
43670;SDS011;29267;50.906;7.248;2022-08-24T07:38:23;5.45;;;2.63;;
43670;SDS011;29267;50.906;7.248;2022-08-24T07:40:50;5.50;;;2.53;;
43670;SDS011;29267;50.906;7.248;2022-08-24T07:43:17;7.13;;;2.50;;
43670;SDS011;29267;50.906;7.248;2022-08-24T07:45:45;5.47;;;2.65;;
43670;SDS011;29267;50.906;7.248;2022-08-24T07:48:12;5.32;;;2.47;;
43670;SDS011;29267;50.906;7.248;2022-08-24T07:50:38;4.15;;;2.53;;
43670;SDS011;29267;50.906;7.248;2022-08-24T07:53:03;4.65;;;2.10;;
43670;SDS011;29267;50.906;7.248;2022-08-24T07:55:29;4.63;;;2.33;;
43670;SDS011;29267;50.906;7.248;2022-08-24T07:57:55;5.28;;;2.38;;
43670;SDS011;29267;50.906;7.248;2022-08-24T08:00:21;5.93;;;2.85;;
43670;SDS011;29267;50.906;7.248;2022-08-24T08:02:47;4.85;;;2.50;;
43670;SDS011;29267;50.906;7.248;2022-08-24T08:05:14;3.88;;;2.17;;
43670;SDS011;29267;50.906;7.248;2022-08-24T08:07:44;3.53;;;2.28;;
43670;SDS011;29267;50.906;7.248;2022-08-24T08:10:10;5.90;;;2.03;;
43670;SDS011;29267;50.906;7.248;2022-08-24T08:12:37;4.93;;;2.50;;
43670;SDS011;29267;50.906;7.248;2022-08-24T08:15:03;7.78;;;3.33;;
43670;SDS011;29267;50.906;7.248;2022-08-24T08:17:32;5.55;;;2.47;;
43670;SDS011;29267;50.906;7.248;2022-08-24T08:19:59;7.00;;;2.33;;
43670;SDS011;29267;50.906;7.248;2022-08-24T08:22:24;9.60;;;2.83;;
43670;SDS011;29267;50.906;7.248;2022-08-24T08:25:09;3.33;;;2.42;;
43670;SDS011;29267;50.906;7.248;2022-08-24T08:27:34;4.68;;;2.40;;
43670;SDS011;29267;50.906;7.248;2022-08-24T08:30:01;9.55;;;2.65;;
43670;SDS011;29267;50.906;7.248;2022-08-24T08:32:30;6.47;;;2.10;;
43670;SDS011;29267;50.906;7.248;2022-08-24T08:34:59;9.52;;;3.00;;
43670;SDS011;29267;50.906;7.248;2022-08-24T08:37:25;6.70;;;2.45;;
43670;SDS011;29267;50.906;7.248;2022-08-24T08:39:51;4.05;;;2.40;;
43670;SDS011;29267;50.906;7.248;2022-08-24T08:50:26;10.35;;;3.05;;
43670;SDS011;29267;50.906;7.248;2022-08-24T09:07:06;8.68;;;2.75;;
43670;SDS011;29267;50.906;7.248;2022-08-24T09:12:21;23.45;;;4.45;;
43670;SDS011;29267;50.906;7.248;2022-08-24T09:26:37;6.68;;;2.78;;
43670;SDS011;29267;50.906;7.248;2022-08-24T09:32:02;6.50;;;2.80;;
43670;SDS011;29267;50.906;7.248;2022-08-24T09:34:38;8.48;;;2.72;;
43670;SDS011;29267;50.906;7.248;2022-08-24T09:55:57;4.10;;;2.50;;
43670;SDS011;29267;50.906;7.248;2022-08-24T10:01:38;4.88;;;2.17;;
43670;SDS011;29267;50.906;7.248;2022-08-24T10:07:12;4.97;;;2.28;;
43670;SDS011;29267;50.906;7.248;2022-08-24T10:24:13;8.38;;;2.92;;
43670;SDS011;29267;50.906;7.248;2022-08-24T10:28:59;5.00;;;2.10;;
43670;SDS011;29267;50.906;7.248;2022-08-24T10:31:47;3.63;;;2.00;;
43670;SDS011;29267;50.906;7.248;2022-08-24T10:53:47;2.85;;;1.73;;
43670;SDS011;29267;50.906;7.248;2022-08-24T10:56:17;4.75;;;1.98;;
43670;SDS011;29267;50.906;7.248;2022-08-24T11:06:31;8.05;;;2.00;;
43670;SDS011;29267;50.906;7.248;2022-08-24T11:09:06;4.72;;;1.92;;
43670;SDS011;29267;50.906;7.248;2022-08-24T11:11:34;7.88;;;2.00;;
43670;SDS011;29267;50.906;7.248;2022-08-24T11:17:17;11.18;;;2.25;;
43670;SDS011;29267;50.906;7.248;2022-08-24T11:19:45;5.43;;;2.13;;
43670;SDS011;29267;50.906;7.248;2022-08-24T11:24:59;4.75;;;1.52;;
43670;SDS011;29267;50.906;7.248;2022-08-24T11:27:48;2.40;;;1.70;;
43670;SDS011;29267;50.906;7.248;2022-08-24T11:32:49;3.97;;;1.65;;
43670;SDS011;29267;50.906;7.248;2022-08-24T11:37:51;3.47;;;2.00;;
43670;SDS011;29267;50.906;7.248;2022-08-24T11:40:24;7.40;;;2.30;;
43670;SDS011;29267;50.906;7.248;2022-08-24T11:45:42;4.70;;;2.03;;
43670;SDS011;29267;50.906;7.248;2022-08-24T11:50:47;7.38;;;1.80;;
43670;SDS011;29267;50.906;7.248;2022-08-24T11:58:59;5.03;;;1.45;;
43670;SDS011;29267;50.906;7.248;2022-08-24T12:01:47;3.35;;;1.90;;
43670;SDS011;29267;50.906;7.248;2022-08-24T12:15:53;3.20;;;1.63;;
43670;SDS011;29267;50.906;7.248;2022-08-24T12:21:04;4.20;;;1.98;;
43670;SDS011;29267;50.906;7.248;2022-08-24T12:23:35;2.63;;;1.80;;
43670;SDS011;29267;50.906;7.248;2022-08-24T12:31:19;2.42;;;1.65;;
43670;SDS011;29267;50.906;7.248;2022-08-24T12:33:53;5.22;;;1.90;;
43670;SDS011;29267;50.906;7.248;2022-08-24T12:36:25;4.05;;;1.77;;
43670;SDS011;29267;50.906;7.248;2022-08-24T12:39:04;5.55;;;2.30;;
43670;SDS011;29267;50.906;7.248;2022-08-24T12:41:52;6.22;;;2.00;;
43670;SDS011;29267;50.906;7.248;2022-08-24T12:44:31;11.48;;;2.45;;
43670;SDS011;29267;50.906;7.248;2022-08-24T12:47:04;4.65;;;2.05;;
43670;SDS011;29267;50.906;7.248;2022-08-24T12:49:33;10.55;;;1.98;;
43670;SDS011;29267;50.906;7.248;2022-08-24T13:00:16;7.43;;;2.13;;
43670;SDS011;29267;50.906;7.248;2022-08-24T13:02:56;3.60;;;2.10;;
43670;SDS011;29267;50.906;7.248;2022-08-24T13:05:37;3.80;;;1.85;;
43670;SDS011;29267;50.906;7.248;2022-08-24T13:08:10;4.00;;;2.05;;
43670;SDS011;29267;50.906;7.248;2022-08-24T13:11:02;5.72;;;2.22;;
43670;SDS011;29267;50.906;7.248;2022-08-24T13:13:39;5.22;;;2.17;;
43670;SDS011;29267;50.906;7.248;2022-08-24T13:16:09;4.35;;;1.83;;
43670;SDS011;29267;50.906;7.248;2022-08-24T13:18:45;6.03;;;2.65;;
43670;SDS011;29267;50.906;7.248;2022-08-24T13:21:16;3.58;;;2.78;;
43670;SDS011;29267;50.906;7.248;2022-08-24T13:29:37;4.03;;;1.95;;
43670;SDS011;29267;50.906;7.248;2022-08-24T13:32:07;5.05;;;2.60;;
43670;SDS011;29267;50.906;7.248;2022-08-24T13:34:45;5.57;;;2.00;;
43670;SDS011;29267;50.906;7.248;2022-08-24T13:37:17;9.18;;;2.40;;
43670;SDS011;29267;50.906;7.248;2022-08-24T13:50:29;4.70;;;2.33;;
43670;SDS011;29267;50.906;7.248;2022-08-24T13:55:51;4.38;;;2.03;;
43670;SDS011;29267;50.906;7.248;2022-08-24T14:12:10;4.95;;;2.40;;
43670;SDS011;29267;50.906;7.248;2022-08-24T14:17:12;3.22;;;1.90;;
43670;SDS011;29267;50.906;7.248;2022-08-24T14:25:50;3.95;;;1.83;;
43670;SDS011;29267;50.906;7.248;2022-08-24T14:28:37;6.60;;;2.17;;
43670;SDS011;29267;50.906;7.248;2022-08-24T14:31:24;5.25;;;1.95;;
43670;SDS011;29267;50.906;7.248;2022-08-24T14:33:56;5.55;;;1.85;;
43670;SDS011;29267;50.906;7.248;2022-08-24T14:36:47;4.43;;;2.15;;
43670;SDS011;29267;50.906;7.248;2022-08-24T14:52:49;4.57;;;2.10;;
43670;SDS011;29267;50.906;7.248;2022-08-24T15:00:48;4.10;;;1.98;;
43670;SDS011;29267;50.906;7.248;2022-08-24T15:03:32;4.60;;;2.25;;
43670;SDS011;29267;50.906;7.248;2022-08-24T15:06:27;3.97;;;1.83;;
43670;SDS011;29267;50.906;7.248;2022-08-24T15:09:12;5.57;;;2.10;;
43670;SDS011;29267;50.906;7.248;2022-08-24T15:11:50;2.72;;;1.90;;
43670;SDS011;29267;50.906;7.248;2022-08-24T15:22:23;8.90;;;2.53;;
43670;SDS011;29267;50.906;7.248;2022-08-24T15:25:10;3.05;;;2.03;;
43670;SDS011;29267;50.906;7.248;2022-08-24T15:30:28;4.65;;;2.15;;
43670;SDS011;29267;50.906;7.248;2022-08-24T15:33:10;5.95;;;2.20;;
43670;SDS011;29267;50.906;7.248;2022-08-24T15:35:48;5.15;;;2.50;;
43670;SDS011;29267;50.906;7.248;2022-08-24T15:41:07;6.63;;;3.08;;
43670;SDS011;29267;50.906;7.248;2022-08-24T15:46:09;4.00;;;2.08;;
43670;SDS011;29267;50.906;7.248;2022-08-24T15:48:36;5.97;;;2.17;;
43670;SDS011;29267;50.906;7.248;2022-08-24T15:51:04;3.15;;;2.30;;
43670;SDS011;29267;50.906;7.248;2022-08-24T15:58:44;7.03;;;2.00;;
43670;SDS011;29267;50.906;7.248;2022-08-24T16:04:00;7.22;;;3.10;;
43670;SDS011;29267;50.906;7.248;2022-08-24T16:06:49;5.70;;;2.20;;
43670;SDS011;29267;50.906;7.248;2022-08-24T16:11:58;6.53;;;2.20;;
43670;SDS011;29267;50.906;7.248;2022-08-24T16:14:41;4.00;;;2.30;;
43670;SDS011;29267;50.906;7.248;2022-08-24T16:17:28;4.13;;;2.42;;
43670;SDS011;29267;50.906;7.248;2022-08-24T16:20:01;2.70;;;1.88;;
43670;SDS011;29267;50.906;7.248;2022-08-24T16:33:10;3.90;;;3.15;;
43670;SDS011;29267;50.906;7.248;2022-08-24T16:36:05;4.97;;;3.22;;
43670;SDS011;29267;50.906;7.248;2022-08-24T16:38:34;4.82;;;3.30;;
43670;SDS011;29267;50.906;7.248;2022-08-24T16:41:06;6.78;;;2.90;;
43670;SDS011;29267;50.906;7.248;2022-08-24T16:43:37;6.57;;;3.38;;
43670;SDS011;29267;50.906;7.248;2022-08-24T16:46:06;4.78;;;3.70;;
43670;SDS011;29267;50.906;7.248;2022-08-24T16:48:34;4.82;;;3.28;;
43670;SDS011;29267;50.906;7.248;2022-08-24T16:51:00;5.50;;;3.40;;
43670;SDS011;29267;50.906;7.248;2022-08-24T16:53:26;6.25;;;3.30;;
43670;SDS011;29267;50.906;7.248;2022-08-24T16:55:52;5.93;;;3.53;;
43670;SDS011;29267;50.906;7.248;2022-08-24T16:58:18;9.63;;;3.60;;
43670;SDS011;29267;50.906;7.248;2022-08-24T17:00:48;5.40;;;3.67;;
43670;SDS011;29267;50.906;7.248;2022-08-24T17:03:14;4.13;;;3.20;;
43670;SDS011;29267;50.906;7.248;2022-08-24T17:05:40;3.75;;;3.40;;
43670;SDS011;29267;50.906;7.248;2022-08-24T17:08:07;4.18;;;3.30;;
43670;SDS011;29267;50.906;7.248;2022-08-24T17:10:34;3.60;;;3.22;;
43670;SDS011;29267;50.906;7.248;2022-08-24T17:13:00;3.92;;;3.47;;
43670;SDS011;29267;50.906;7.248;2022-08-24T17:15:26;3.95;;;3.33;;
43670;SDS011;29267;50.906;7.248;2022-08-24T17:17:54;3.72;;;2.92;;
43670;SDS011;29267;50.906;7.248;2022-08-24T17:20:25;5.82;;;3.65;;
43670;SDS011;29267;50.906;7.248;2022-08-24T17:22:52;7.22;;;3.60;;
43670;SDS011;29267;50.906;7.248;2022-08-24T17:25:17;4.45;;;3.40;;
43670;SDS011;29267;50.906;7.248;2022-08-24T17:27:43;5.15;;;3.85;;
43670;SDS011;29267;50.906;7.248;2022-08-24T17:30:09;4.75;;;4.00;;
43670;SDS011;29267;50.906;7.248;2022-08-24T17:32:35;6.22;;;3.78;;
43670;SDS011;29267;50.906;7.248;2022-08-24T17:35:02;3.95;;;3.55;;
43670;SDS011;29267;50.906;7.248;2022-08-24T17:37:28;4.60;;;3.72;;
43670;SDS011;29267;50.906;7.248;2022-08-24T17:39:55;4.57;;;3.42;;
43670;SDS011;29267;50.906;7.248;2022-08-24T17:42:22;5.00;;;3.60;;
43670;SDS011;29267;50.906;7.248;2022-08-24T17:44:48;5.10;;;3.70;;
43670;SDS011;29267;50.906;7.248;2022-08-24T17:47:14;4.32;;;3.50;;
43670;SDS011;29267;50.906;7.248;2022-08-24T17:49:41;4.25;;;3.78;;
43670;SDS011;29267;50.906;7.248;2022-08-24T17:52:07;8.10;;;4.15;;
43670;SDS011;29267;50.906;7.248;2022-08-24T17:54:34;4.05;;;3.50;;
43670;SDS011;29267;50.906;7.248;2022-08-24T17:56:59;7.97;;;3.70;;
43670;SDS011;29267;50.906;7.248;2022-08-24T17:59:28;7.93;;;3.70;;
43670;SDS011;29267;50.906;7.248;2022-08-24T18:02:03;4.95;;;3.92;;
43670;SDS011;29267;50.906;7.248;2022-08-24T18:04:31;5.95;;;4.13;;
43670;SDS011;29267;50.906;7.248;2022-08-24T18:07:08;5.07;;;3.90;;
43670;SDS011;29267;50.906;7.248;2022-08-24T18:09:37;5.15;;;3.50;;
43670;SDS011;29267;50.906;7.248;2022-08-24T18:12:16;6.07;;;4.30;;
43670;SDS011;29267;50.906;7.248;2022-08-24T18:14:44;4.32;;;3.67;;
43670;SDS011;29267;50.906;7.248;2022-08-24T18:17:11;4.40;;;3.65;;
43670;SDS011;29267;50.906;7.248;2022-08-24T18:19:41;4.78;;;3.80;;
43670;SDS011;29267;50.906;7.248;2022-08-24T18:22:08;5.13;;;4.20;;
43670;SDS011;29267;50.906;7.248;2022-08-24T18:24:35;5.60;;;4.50;;
43670;SDS011;29267;50.906;7.248;2022-08-24T18:27:05;8.30;;;4.20;;
43670;SDS011;29267;50.906;7.248;2022-08-24T18:29:38;4.95;;;4.45;;
43670;SDS011;29267;50.906;7.248;2022-08-24T18:32:05;5.65;;;4.78;;
43670;SDS011;29267;50.906;7.248;2022-08-24T18:34:31;7.72;;;5.28;;
43670;SDS011;29267;50.906;7.248;2022-08-24T18:36:58;5.43;;;4.93;;
43670;SDS011;29267;50.906;7.248;2022-08-24T18:39:24;5.88;;;4.95;;
43670;SDS011;29267;50.906;7.248;2022-08-24T18:41:50;6.53;;;5.85;;
43670;SDS011;29267;50.906;7.248;2022-08-24T18:44:18;6.65;;;4.80;;
43670;SDS011;29267;50.906;7.248;2022-08-24T18:46:46;6.32;;;4.93;;
43670;SDS011;29267;50.906;7.248;2022-08-24T18:49:13;6.63;;;5.78;;
43670;SDS011;29267;50.906;7.248;2022-08-24T18:51:39;6.13;;;5.50;;
43670;SDS011;29267;50.906;7.248;2022-08-24T18:54:13;6.43;;;5.80;;
43670;SDS011;29267;50.906;7.248;2022-08-24T18:56:41;6.53;;;5.75;;
43670;SDS011;29267;50.906;7.248;2022-08-24T18:59:09;7.32;;;5.95;;
43670;SDS011;29267;50.906;7.248;2022-08-24T19:01:38;7.20;;;5.60;;
43670;SDS011;29267;50.906;7.248;2022-08-24T19:04:23;8.60;;;6.80;;
43670;SDS011;29267;50.906;7.248;2022-08-24T19:06:49;7.53;;;6.07;;
43670;SDS011;29267;50.906;7.248;2022-08-24T19:09:16;7.35;;;5.55;;
43670;SDS011;29267;50.906;7.248;2022-08-24T19:11:42;8.88;;;6.38;;
43670;SDS011;29267;50.906;7.248;2022-08-24T19:14:08;7.47;;;6.22;;
43670;SDS011;29267;50.906;7.248;2022-08-24T19:16:34;6.53;;;5.85;;
43670;SDS011;29267;50.906;7.248;2022-08-24T19:19:00;7.65;;;6.15;;
43670;SDS011;29267;50.906;7.248;2022-08-24T19:21:27;7.00;;;6.07;;